createdAt,value
2023-02-21T00:03:15.855Z,3.40
2023-02-21T00:06:36.394Z,3.40
2023-02-21T00:09:58.667Z,3.30
2023-02-21T00:13:19.879Z,3.10
2023-02-21T00:16:40.498Z,3.00
2023-02-21T00:20:01.420Z,3.00
2023-02-21T00:23:22.682Z,2.90
2023-02-21T00:26:43.283Z,2.90
2023-02-21T00:30:06.013Z,2.80
2023-02-21T00:33:26.962Z,2.70
2023-02-21T00:36:47.552Z,2.40
2023-02-21T00:40:08.566Z,2.30
2023-02-21T00:43:29.762Z,2.20
2023-02-21T00:46:50.161Z,2.20
2023-02-21T00:50:10.760Z,2.10
2023-02-21T00:53:31.773Z,2.10
2023-02-21T00:56:52.162Z,2.10
2023-02-21T01:00:12.905Z,2.10
2023-02-21T01:03:33.881Z,2.10
2023-02-21T01:06:54.770Z,2.10
2023-02-21T01:10:15.269Z,2.00
2023-02-21T01:13:35.923Z,2.10
2023-02-21T01:17:01.955Z,2.10
2023-02-21T01:20:29.235Z,2.00
2023-02-21T01:23:51.194Z,2.00
2023-02-21T01:27:11.662Z,1.90
2023-02-21T01:30:32.487Z,1.80
2023-02-21T01:33:57.978Z,1.70
2023-02-21T01:37:18.389Z,1.60
2023-02-21T01:40:40.962Z,1.50
2023-02-21T01:44:19.705Z,1.40
2023-02-21T01:47:40.870Z,1.40
2023-02-21T01:51:03.071Z,1.50
2023-02-21T01:54:26.215Z,1.40
2023-02-21T01:57:47.210Z,1.30
2023-02-21T02:01:08.568Z,1.10
2023-02-21T02:04:29.534Z,1.10
2023-02-21T02:07:51.450Z,1.10
2023-02-21T02:11:27.880Z,1.10
2023-02-21T02:15:00.624Z,1.10
2023-02-21T02:18:34.405Z,1.00
2023-02-21T02:21:55.704Z,1.00
2023-02-21T02:24:57.658Z,1.00
2023-02-21T02:28:36.518Z,0.90
2023-02-21T02:32:09.367Z,0.90
2023-02-21T02:35:30.420Z,0.80
2023-02-21T02:38:48.921Z,0.80
2023-02-21T02:42:10.920Z,0.70
2023-02-21T02:45:26.433Z,0.60
2023-02-21T02:48:39.913Z,0.60
2023-02-21T02:51:42.203Z,0.60
2023-02-21T02:54:44.629Z,0.60
2023-02-21T02:57:48.924Z,0.60
2023-02-21T03:01:29.219Z,0.60
2023-02-21T03:05:18.386Z,0.60
2023-02-21T03:08:50.721Z,0.50
2023-02-21T03:12:17.930Z,0.50
2023-02-21T03:15:45.198Z,0.40
2023-02-21T03:19:05.273Z,0.30
2023-02-21T03:22:15.505Z,0.40
2023-02-21T03:25:20.276Z,0.30
2023-02-21T03:28:23.498Z,0.30
2023-02-21T03:31:33.417Z,0.30
2023-02-21T03:34:35.696Z,0.30
2023-02-21T03:37:39.774Z,0.40
2023-02-21T03:40:42.042Z,0.30
2023-02-21T03:43:44.294Z,0.50
2023-02-21T03:46:46.522Z,0.50
2023-02-21T03:49:48.646Z,0.50
2023-02-21T03:52:51.353Z,0.40
2023-02-21T03:55:53.458Z,0.30
2023-02-21T03:58:55.609Z,0.30
2023-02-21T04:01:58.254Z,0.30
2023-02-21T04:05:00.508Z,0.20
2023-02-21T04:08:04.462Z,0.20
2023-02-21T04:11:06.942Z,0.20
2023-02-21T04:14:09.530Z,0.10
2023-02-21T04:17:11.715Z,0.10
2023-02-21T04:20:15.457Z,0.10
2023-02-21T04:23:21.041Z,0.10
2023-02-21T04:26:24.158Z,0.20
2023-02-21T04:29:26.514Z,0.10
2023-02-21T04:32:28.677Z,0.10
2023-02-21T04:35:31.049Z,0.10
2023-02-21T04:38:33.147Z,0.10
2023-02-21T04:41:35.361Z,0.10
2023-02-21T04:44:38.161Z,0.10
2023-02-21T04:47:40.270Z,0.10
2023-02-21T04:50:42.950Z,0.10
2023-02-21T04:53:47.784Z,0.00
2023-02-21T04:56:52.515Z,0.00
2023-02-21T05:00:00.189Z,0.00
2023-02-21T05:03:02.341Z,0.10
2023-02-21T05:06:04.636Z,-0.10
2023-02-21T05:09:06.882Z,-0.20
2023-02-21T05:12:12.028Z,-0.20
2023-02-21T05:15:15.286Z,-0.20
2023-02-21T05:18:22.721Z,-0.20
2023-02-21T05:21:24.950Z,-0.20
2023-02-21T05:24:28.981Z,-0.20
2023-02-21T05:27:31.137Z,-0.20
2023-02-21T05:30:33.418Z,-0.20
2023-02-21T05:33:36.178Z,-0.20
2023-02-21T05:36:38.349Z,-0.30
2023-02-21T05:39:40.534Z,-0.20
2023-02-21T05:42:43.651Z,-0.30
2023-02-21T05:45:46.093Z,-0.30
2023-02-21T05:48:48.552Z,-0.30
2023-02-21T05:51:51.026Z,-0.20
2023-02-21T05:54:53.596Z,-0.20
2023-02-21T05:57:55.813Z,-0.10
2023-02-21T06:00:57.999Z,-0.10
2023-02-21T06:04:01.541Z,-0.10
2023-02-21T06:07:03.669Z,0.00
2023-02-21T06:10:06.050Z,0.10
2023-02-21T06:13:11.517Z,0.10
2023-02-21T06:16:13.588Z,0.20
2023-02-21T06:19:16.871Z,0.00
2023-02-21T06:22:19.075Z,0.10
2023-02-21T06:25:21.302Z,0.20
2023-02-21T06:28:29.604Z,0.30
2023-02-21T06:31:32.095Z,0.50
2023-02-21T06:34:34.408Z,0.50
2023-02-21T06:37:36.555Z,0.60
2023-02-21T06:40:38.728Z,0.60
2023-02-21T06:43:41.066Z,0.70
2023-02-21T06:46:43.581Z,0.80
2023-02-21T06:49:45.744Z,0.80
2023-02-21T06:52:48.007Z,0.80
2023-02-21T06:55:50.088Z,0.90
2023-02-21T06:58:52.256Z,0.90
2023-02-21T07:01:55.592Z,0.90
2023-02-21T07:04:58.177Z,1.00
2023-02-21T07:08:02.030Z,1.00
2023-02-21T07:11:05.931Z,1.10
2023-02-21T07:14:08.463Z,1.30
2023-02-21T07:17:10.592Z,1.40
2023-02-21T07:20:12.925Z,1.40
2023-02-21T07:23:16.242Z,1.50
2023-02-21T07:26:18.729Z,1.80
2023-02-21T07:29:20.876Z,1.90
2023-02-21T07:35:25.389Z,2.10
2023-02-21T07:38:29.631Z,2.30
2023-02-21T07:41:31.800Z,2.50
2023-02-21T07:44:34.746Z,2.80
2023-02-21T07:47:36.935Z,2.90
2023-02-21T07:50:42.358Z,3.10
2023-02-21T07:53:44.563Z,3.40
2023-02-21T07:56:48.168Z,3.60
2023-02-21T07:59:50.557Z,3.80
2023-02-21T08:02:53.047Z,4.10
2023-02-21T08:05:55.220Z,4.40
2023-02-21T08:08:58.080Z,5.00
2023-02-21T08:12:00.211Z,5.50
2023-02-21T08:15:02.392Z,5.80
2023-02-21T08:18:04.769Z,6.10
2023-02-21T08:21:10.481Z,6.40
2023-02-21T08:24:13.029Z,6.90
2023-02-21T08:27:15.121Z,7.50
2023-02-21T08:30:18.594Z,8.40
2023-02-21T08:33:20.961Z,9.70
2023-02-21T08:36:30.457Z,10.70
2023-02-21T08:39:32.725Z,11.20
2023-02-21T08:42:34.924Z,11.70
2023-02-21T08:45:37.204Z,12.30
2023-02-21T08:48:39.276Z,12.40
2023-02-21T08:51:41.463Z,12.20
2023-02-21T08:54:45.091Z,11.80
2023-02-21T08:57:52.671Z,11.70
2023-02-21T09:00:55.231Z,11.80
2023-02-21T09:03:57.432Z,11.80
2023-02-21T09:06:59.532Z,11.80
2023-02-21T09:10:02.169Z,12.00
2023-02-21T09:13:05.208Z,12.20
2023-02-21T09:16:07.844Z,12.50
2023-02-21T09:19:10.053Z,12.90
2023-02-21T09:22:12.259Z,13.20
2023-02-21T09:25:18.196Z,13.70
2023-02-21T09:28:21.161Z,14.40
2023-02-21T09:31:23.407Z,14.30
2023-02-21T09:34:25.662Z,14.80
2023-02-21T09:37:27.796Z,14.90
2023-02-21T09:40:38.821Z,15.50
2023-02-21T09:43:46.001Z,15.80
2023-02-21T09:46:50.841Z,16.00
2023-02-21T09:49:58.624Z,16.20
2023-02-21T09:53:01.594Z,15.90
2023-02-21T09:56:35.544Z,15.40
2023-02-21T09:59:37.748Z,15.60
2023-02-21T10:02:51.280Z,16.50
2023-02-21T10:05:53.411Z,17.00
2023-02-21T10:09:19.384Z,17.40
2023-02-21T10:12:45.943Z,18.00
2023-02-21T10:16:10.417Z,18.40
2023-02-21T10:19:18.457Z,17.60
2023-02-21T10:22:28.481Z,17.10
2023-02-21T10:25:32.954Z,16.70
2023-02-21T10:28:35.417Z,16.40
2023-02-21T10:31:41.206Z,16.00
2023-02-21T10:34:47.394Z,15.90
2023-02-21T10:37:59.505Z,15.90
2023-02-21T10:41:04.743Z,15.60
2023-02-21T10:44:40.495Z,15.20
2023-02-21T10:48:01.707Z,15.30
2023-02-21T10:51:10.681Z,15.40
2023-02-21T10:54:26.031Z,15.60
2023-02-21T10:57:30.958Z,16.10
2023-02-21T11:00:41.918Z,16.40
2023-02-21T11:03:51.333Z,16.50
2023-02-21T11:06:58.065Z,16.40
2023-02-21T11:10:00.682Z,16.10
2023-02-21T11:13:14.062Z,16.30
2023-02-21T11:16:19.505Z,16.30
2023-02-21T11:19:21.677Z,16.30
2023-02-21T11:22:26.652Z,16.50
2023-02-21T11:25:38.297Z,16.20
2023-02-21T11:28:43.657Z,16.60
2023-02-21T11:31:46.193Z,16.90
2023-02-21T11:34:48.552Z,17.00
2023-02-21T11:37:52.931Z,17.50
2023-02-21T11:40:57.679Z,18.40
2023-02-21T11:43:59.870Z,18.90
2023-02-21T11:47:35.334Z,18.90
2023-02-21T11:50:46.812Z,18.90
2023-02-21T11:53:48.983Z,19.40
2023-02-21T11:57:06.804Z,18.80
2023-02-21T12:00:21.196Z,18.20
2023-02-21T12:03:50.328Z,18.40
2023-02-21T12:06:52.414Z,19.00
2023-02-21T12:10:26.106Z,19.70
2023-02-21T12:13:49.844Z,20.40
2023-02-21T12:16:54.868Z,20.70
2023-02-21T12:20:28.000Z,20.10
2023-02-21T12:23:38.382Z,20.00
2023-02-21T12:27:01.113Z,20.40
2023-02-21T12:30:27.666Z,21.00
2023-02-21T12:33:51.270Z,20.90
2023-02-21T12:37:15.144Z,21.20
2023-02-21T12:40:39.201Z,20.40
2023-02-21T12:43:54.773Z,20.30
2023-02-21T12:47:15.680Z,19.90
2023-02-21T12:50:35.730Z,20.40
2023-02-21T12:53:45.812Z,19.60
2023-02-21T12:57:05.210Z,19.90
2023-02-21T13:00:41.092Z,20.60
2023-02-21T13:04:07.393Z,21.10
2023-02-21T13:07:25.643Z,20.70
2023-02-21T13:10:38.486Z,20.20
2023-02-21T13:13:40.883Z,21.20
2023-02-21T13:16:43.094Z,20.60
2023-02-21T13:19:58.210Z,20.30
2023-02-21T13:23:00.515Z,19.70
2023-02-21T13:26:26.628Z,20.00
2023-02-21T13:29:33.858Z,20.30
2023-02-21T13:32:40.242Z,20.60
2023-02-21T13:35:43.163Z,20.30
2023-02-21T13:38:45.470Z,20.30
2023-02-21T13:42:10.566Z,20.50
2023-02-21T13:45:22.349Z,20.60
2023-02-21T13:48:27.276Z,20.70
2023-02-21T13:51:56.127Z,20.80
2023-02-21T13:55:15.912Z,21.00
2023-02-21T13:58:18.788Z,20.60
2023-02-21T14:01:41.808Z,21.10
2023-02-21T14:05:02.789Z,21.10
2023-02-21T14:08:08.065Z,20.80
2023-02-21T14:11:10.575Z,21.10
2023-02-21T14:14:32.239Z,22.00
2023-02-21T14:17:37.183Z,21.70
2023-02-21T14:20:42.052Z,21.10
2023-02-21T14:23:50.918Z,20.90
2023-02-21T14:26:53.031Z,21.30
2023-02-21T14:30:01.503Z,22.20
2023-02-21T14:33:30.650Z,22.00
2023-02-21T14:36:33.163Z,21.40
2023-02-21T14:39:42.347Z,21.30
2023-02-21T14:43:06.498Z,21.70
2023-02-21T14:46:36.398Z,21.40
2023-02-21T14:50:15.549Z,20.60
2023-02-21T14:53:42.279Z,20.90
2023-02-21T14:56:56.407Z,21.70
2023-02-21T15:00:19.873Z,22.70
2023-02-21T15:03:28.822Z,23.30
2023-02-21T15:06:32.997Z,23.10
2023-02-21T15:09:38.149Z,22.20
2023-02-21T15:12:46.157Z,22.10
2023-02-21T15:15:54.586Z,21.70
2023-02-21T15:19:01.897Z,21.80
2023-02-21T15:22:16.373Z,21.60
2023-02-21T15:25:21.062Z,21.40
2023-02-21T15:28:28.976Z,21.60
2023-02-21T15:31:41.663Z,20.90
2023-02-21T15:34:47.023Z,20.20
2023-02-21T15:37:49.554Z,19.20
2023-02-21T15:40:58.194Z,18.60
2023-02-21T15:44:19.347Z,18.00
2023-02-21T15:47:24.260Z,17.60
2023-02-21T15:50:36.463Z,17.50
2023-02-21T15:53:39.154Z,17.40
2023-02-21T15:56:42.548Z,17.10
2023-02-21T15:59:44.787Z,16.80
2023-02-21T16:02:47.400Z,16.50
2023-02-21T16:05:49.728Z,16.20
2023-02-21T16:09:01.978Z,15.80
2023-02-21T16:12:22.336Z,15.40
2023-02-21T16:15:26.983Z,15.20
2023-02-21T16:18:29.743Z,15.00
2023-02-21T16:21:32.579Z,14.90
2023-02-21T16:24:35.908Z,14.70
2023-02-21T16:27:40.658Z,14.50
2023-02-21T16:30:48.822Z,14.10
2023-02-21T16:33:51.552Z,13.70
2023-02-21T16:37:01.974Z,13.30
2023-02-21T16:40:14.510Z,13.20
2023-02-21T16:43:21.013Z,12.90
2023-02-21T16:46:30.076Z,12.70
2023-02-21T16:49:33.692Z,12.30
2023-02-21T16:52:36.439Z,11.90
2023-02-21T16:55:39.723Z,11.50
2023-02-21T16:58:47.435Z,11.30
2023-02-21T17:01:50.905Z,11.00
2023-02-21T17:04:53.043Z,10.80
2023-02-21T17:07:57.464Z,10.60
2023-02-21T17:11:00.958Z,10.40
2023-02-21T17:14:03.376Z,10.10
2023-02-21T17:17:07.465Z,10.00
2023-02-21T17:20:17.081Z,9.80
2023-02-21T17:23:21.156Z,9.60
2023-02-21T17:26:24.582Z,9.20
2023-02-21T17:29:27.483Z,9.00
2023-02-21T17:32:31.161Z,8.90
2023-02-21T17:35:34.539Z,8.80
2023-02-21T17:38:37.098Z,8.80
2023-02-21T17:41:50.161Z,8.70
2023-02-21T17:44:53.758Z,8.40
2023-02-21T17:47:56.914Z,8.20
2023-02-21T17:51:00.691Z,8.00
2023-02-21T17:54:05.030Z,7.90
2023-02-21T17:57:10.635Z,7.70
2023-02-21T18:00:25.046Z,7.60
2023-02-21T18:03:27.866Z,7.50
2023-02-21T18:06:31.311Z,7.40
2023-02-21T18:09:34.530Z,7.40
2023-02-21T18:12:38.755Z,7.30
2023-02-21T18:15:42.046Z,7.00
2023-02-21T18:18:45.905Z,7.00
2023-02-21T18:21:49.998Z,6.90
2023-02-21T18:24:53.652Z,6.80
2023-02-21T18:27:58.278Z,6.80
2023-02-21T18:31:01.789Z,6.60
2023-02-21T18:34:08.097Z,6.60
2023-02-21T18:37:11.759Z,6.50
2023-02-21T18:40:21.051Z,6.50
2023-02-21T18:43:31.422Z,6.30
2023-02-21T18:46:38.443Z,6.20
2023-02-21T18:49:47.314Z,6.10
2023-02-21T18:52:50.845Z,5.90
2023-02-21T18:55:54.500Z,5.90
2023-02-21T18:58:58.110Z,5.90
2023-02-21T19:02:01.982Z,5.80
2023-02-21T19:05:07.158Z,5.70
2023-02-21T19:08:11.202Z,5.50
2023-02-21T19:11:18.130Z,5.40
2023-02-21T19:14:23.814Z,5.30
2023-02-21T19:17:29.282Z,5.30
2023-02-21T19:20:40.935Z,5.20
2023-02-21T19:23:45.124Z,5.10
2023-02-21T19:26:49.168Z,5.10
2023-02-21T19:29:56.904Z,5.00
2023-02-21T19:33:01.206Z,4.90
2023-02-21T19:36:07.697Z,4.80
2023-02-21T19:39:12.260Z,4.60
2023-02-21T19:42:15.793Z,4.50
2023-02-21T19:45:19.890Z,4.50
2023-02-21T19:48:23.516Z,4.40
2023-02-21T19:51:30.271Z,4.40
2023-02-21T19:54:35.628Z,4.40
2023-02-21T19:57:40.199Z,4.30
2023-02-21T20:00:44.401Z,4.30
2023-02-21T20:03:49.638Z,4.30
2023-02-21T20:06:53.390Z,4.20
2023-02-21T20:09:58.012Z,4.10
2023-02-21T20:13:03.258Z,4.10
2023-02-21T20:16:06.877Z,4.10
2023-02-21T20:19:12.627Z,4.00
2023-02-21T20:22:16.707Z,4.00
2023-02-21T20:25:21.917Z,4.00
2023-02-21T20:28:25.974Z,3.90
2023-02-21T20:31:32.869Z,3.80
2023-02-21T20:34:40.029Z,3.80
2023-02-21T20:37:44.228Z,3.70
2023-02-21T20:40:48.182Z,3.70
2023-02-21T20:43:52.356Z,3.60
2023-02-21T20:47:07.452Z,3.60
2023-02-21T20:50:14.644Z,3.60
2023-02-21T20:53:19.420Z,3.50
2023-02-21T20:56:27.988Z,3.50
2023-02-21T20:59:41.069Z,3.40
2023-02-21T21:02:45.843Z,3.40
2023-02-21T21:05:49.426Z,3.30
2023-02-21T21:08:53.783Z,3.30
2023-02-21T21:12:01.398Z,3.20
2023-02-21T21:15:08.750Z,3.20
2023-02-21T21:18:13.877Z,3.20
2023-02-21T21:21:18.989Z,3.10
2023-02-21T21:24:23.476Z,2.90
2023-02-21T21:27:27.177Z,2.80
2023-02-21T21:30:31.652Z,2.80
2023-02-21T21:33:35.009Z,2.80
2023-02-21T21:36:48.226Z,2.80
2023-02-21T21:39:55.957Z,2.70
2023-02-21T21:43:00.109Z,2.80
2023-02-21T21:46:03.068Z,2.70
2023-02-21T21:49:06.498Z,2.70
2023-02-21T21:52:10.910Z,2.60
2023-02-21T21:55:19.166Z,2.60
2023-02-21T21:58:25.728Z,2.60
2023-02-21T22:01:29.975Z,2.50
2023-02-21T22:04:33.284Z,2.50
2023-02-21T22:07:35.500Z,2.50
2023-02-21T22:10:39.205Z,2.40
2023-02-21T22:13:41.606Z,2.40
2023-02-21T22:16:46.190Z,2.30
2023-02-21T22:19:48.439Z,2.10
2023-02-21T22:22:52.092Z,2.10
2023-02-21T22:25:54.317Z,2.10
2023-02-21T22:29:00.233Z,2.10
2023-02-21T22:32:02.953Z,2.10
2023-02-21T22:35:05.543Z,2.00
2023-02-21T22:38:07.850Z,2.00
2023-02-21T22:41:23.168Z,2.00
2023-02-21T22:44:25.350Z,2.00
2023-02-21T22:47:27.536Z,1.90
2023-02-21T22:50:36.850Z,1.90
2023-02-21T22:53:39.528Z,1.90
2023-02-21T22:56:51.020Z,1.90
2023-02-21T22:59:57.724Z,1.90
2023-02-21T23:03:14.625Z,1.80
2023-02-21T23:06:16.743Z,1.70
2023-02-21T23:09:18.863Z,1.70
2023-02-21T23:12:21.308Z,1.70
2023-02-21T23:15:23.830Z,1.60
2023-02-21T23:18:26.541Z,1.60
2023-02-21T23:21:30.523Z,1.40
2023-02-21T23:24:32.719Z,1.40
2023-02-21T23:27:34.748Z,1.30
2023-02-21T23:30:42.850Z,1.20
2023-02-21T23:33:48.780Z,1.30
2023-02-21T23:36:50.979Z,1.30
2023-02-21T23:39:53.287Z,1.20
2023-02-21T23:42:55.721Z,1.10
2023-02-21T23:46:00.267Z,1.10
2023-02-21T23:49:03.668Z,1.10
2023-02-21T23:52:05.822Z,1.10
2023-02-21T23:55:08.022Z,1.10
2023-02-21T23:58:13.506Z,1.10
